Terminal Aerodrome Forecast
Issued by NWS Corpus Christi, TX

Home | Current Version | Previous Version | Text Only | Print | Product List | Glossary On
Versions: 1 2 3 4 5 6 7 8 9 10 11 12 13 14 15 16 17
974
FTUS44 KCRP 291326 AAA
TAFVCT
TAF AMD
KVCT 291326Z 2913/3012 VRB06KT P6SM -TSRA SCT016 BKN035CB
      TEMPO 2913/2915 VRB20G30KT 1/4SM +TSRA BKN015CB OVC035
     FM291500 29010KT P6SM SCT070
     FM300000 15005KT P6SM FEW025
     FM300800 31010KT P6SM SKC=

USA.gov is the U.S. government's official web portal to all federal, state and local government web resources and services.